Terminal Aerodrome Forecast
Issued by NWS Glasgow, MT

Home | Current Version | Previous Version | Text Only | Print | Product List | Glossary On
Versions: 1 2 3 4 5 6 7 8 9 10 11 12
000
FTUS45 KGGW 190500
TAFGGW
TAF
KGGW 190524Z 1906/2006 27007KT P6SM SCT080 BKN100
     FM191500 30013KT P6SM SCT080
     FM200200 VRB06KT P6SM FEW100=

USA.gov is the U.S. government's official web portal to all federal, state and local government web resources and services.